Time;durP1;ratioP1;P1;durP2;ratioP2;P2;SDS_P1;SDS_P2;PMS_P1;PMS_P2;Temp;Humidity;BMP_temperature;BMP_pressure;BME280_temperature;BME280_humidity;BME280_pressure;Samples;Min_cycle;Max_cycle;Signal;HPM_P1;HPM_P2
2021/09/07 00:01:12;;;;;;;11.15;7.95;;;;;;;13.21;95.45;99446.91;5051788;28;20108;-73
2021/09/07 00:03:38;;;;;;;11.02;8.20;;;;;;;13.24;96.26;99459.25;5036788;28;20125;-73
2021/09/07 00:06:03;;;;;;;16.23;8.68;;;;;;;13.28;96.54;99458.66;5037664;28;20432;-73
2021/09/07 00:08:28;;;;;;;17.65;8.32;;;;;;;13.16;96.28;99442.06;5054671;28;20470;-73
2021/09/07 00:10:54;;;;;;;12.60;7.88;;;;;;;13.08;95.52;99430.56;5054977;28;20060;-73
2021/09/07 00:13:19;;;;;;;11.15;7.80;;;;;;;13.06;95.80;99441.63;5054470;28;20497;-73
2021/09/07 00:15:44;;;;;;;12.65;7.60;;;;;;;13.06;95.33;99446.22;5054806;28;20033;-73
2021/09/07 00:18:10;;;;;;;12.35;7.90;;;;;;;12.99;95.29;99435.31;5037074;28;20025;-73
2021/09/07 00:20:35;;;;;;;11.40;7.70;;;;;;;13.04;95.37;99448.31;5046124;28;20075;-73
2021/09/07 00:23:01;;;;;;;14.35;7.50;;;;;;;12.91;95.22;99439.06;5054976;28;20025;-73
2021/09/07 00:25:26;;;;;;;8.98;6.90;;;;;;;13.02;94.69;99432.22;5055769;28;20021;-73
2021/09/07 00:27:51;;;;;;;13.32;7.68;;;;;;;12.89;94.71;99424.00;5036344;28;20078;-72
2021/09/07 00:30:17;;;;;;;11.15;7.70;;;;;;;12.96;95.29;99443.88;5053840;28;20020;-73
2021/09/07 00:32:42;;;;;;;11.98;8.02;;;;;;;12.90;95.84;99448.25;5054284;28;20130;-73
2021/09/07 00:35:11;;;;;;;11.05;8.07;;;;;;;12.69;95.68;99402.22;5037227;28;20033;-73
2021/09/07 00:37:37;;;;;;;11.67;8.40;;;;;;;12.98;96.04;99444.53;5052819;28;20021;-73
2021/09/07 00:40:02;;;;;;;16.67;8.80;;;;;;;12.90;95.88;99425.69;5054578;28;20279;-73
2021/09/07 00:42:28;;;;;;;15.23;9.15;;;;;;;12.91;95.73;99433.63;5054606;28;20033;-73
2021/09/07 00:44:53;;;;;;;15.40;8.85;;;;;;;12.81;96.04;99432.31;5052294;28;20016;-73
2021/09/07 00:47:18;;;;;;;14.18;8.48;;;;;;;12.83;96.51;99432.97;5052943;28;20368;-73
2021/09/07 00:49:44;;;;;;;12.43;7.95;;;;;;;12.76;96.25;99415.81;5035059;28;20521;-73
2021/09/07 00:52:09;;;;;;;11.50;8.30;;;;;;;12.87;96.30;99437.81;5051803;28;20485;-73
2021/09/07 00:54:36;;;;;;;11.25;8.27;;;;;;;12.82;96.56;99434.84;5036467;28;20029;-73
2021/09/07 00:57:05;;;;;;;11.25;8.13;;;;;;;12.74;96.59;99435.03;5054907;28;20052;-73
2021/09/07 00:59:32;;;;;;;14.13;8.33;;;;;;;12.75;96.93;99439.41;5051176;28;20040;-73
2021/09/07 01:01:58;;;;;;;11.48;7.93;;;;;;;12.67;97.02;99443.13;5053694;28;20271;-73
2021/09/07 01:04:23;;;;;;;12.07;8.50;;;;;;;12.78;97.16;99432.75;5053697;28;20021;-72
2021/09/07 01:06:48;;;;;;;14.15;8.77;;;;;;;12.73;96.60;99414.34;5053814;28;20459;-73
2021/09/07 01:09:14;;;;;;;12.40;7.88;;;;;;;12.78;96.49;99436.28;5036459;28;20032;-73
2021/09/07 01:11:40;;;;;;;12.57;8.38;;;;;;;12.54;96.59;99405.06;5036462;28;20025;-73
2021/09/07 01:14:05;;;;;;;11.20;7.88;;;;;;;12.66;96.20;99437.91;5035430;28;20021;-72
2021/09/07 01:16:30;;;;;;;13.70;8.23;;;;;;;12.54;97.12;99423.22;5036658;28;20025;-73
2021/09/07 01:18:56;;;;;;;12.07;7.80;;;;;;;12.54;97.51;99434.91;5036219;28;20056;-72
2021/09/07 01:21:21;;;;;;;11.10;7.32;;;;;;;12.49;97.17;99440.94;5054188;28;20111;-73
2021/09/07 01:23:48;;;;;;;12.02;8.20;;;;;;;12.45;96.18;99434.25;5062512;28;20391;-73
2021/09/07 01:26:19;;;;;;;11.65;7.95;;;;;;;12.40;96.61;99447.59;5024207;28;20021;-72
2021/09/07 01:28:45;;;;;;;14.13;7.68;;;;;;;12.06;96.86;99400.41;5035627;28;20036;-73
2021/09/07 01:31:11;;;;;;;12.98;8.30;;;;;;;12.30;97.88;99444.38;5035428;28;20425;-73
2021/09/07 01:33:38;;;;;;;15.30;8.75;;;;;;;12.23;97.83;99435.34;5035801;28;20082;-73
2021/09/07 01:36:04;;;;;;;12.60;8.18;;;;;;;11.98;97.92;99411.41;5053680;28;20028;-73
2021/09/07 01:38:30;;;;;;;12.98;8.85;;;;;;;12.35;98.19;99438.38;5046501;28;20081;-72
2021/09/07 01:40:57;;;;;;;13.05;7.32;;;;;;;12.48;96.58;99436.56;5026849;28;20052;-73
2021/09/07 01:43:22;;;;;;;12.45;7.88;;;;;;;12.49;96.33;99432.81;5052013;28;20020;-73
2021/09/07 01:45:49;;;;;;;11.45;7.60;;;;;;;12.33;95.65;99408.72;5053528;28;20099;-73
2021/09/07 01:48:15;;;;;;;13.25;8.32;;;;;;;12.54;96.00;99437.63;5063248;28;20038;-73
2021/09/07 01:50:41;;;;;;;14.63;8.27;;;;;;;12.35;96.09;99433.78;5062134;28;20020;-73
2021/09/07 01:53:06;;;;;;;11.10;7.95;;;;;;;12.27;96.45;99433.94;5072264;22;20132;-69
2021/09/07 01:55:31;;;;;;;15.73;8.45;;;;;;;12.21;97.42;99434.75;5072226;28;20031;-69
2021/09/07 01:57:57;;;;;;;11.55;8.75;;;;;;;12.17;97.02;99428.84;5070550;28;20104;-69
2021/09/07 02:00:22;;;;;;;11.90;7.63;;;;;;;11.97;96.34;99420.59;5051367;28;20029;-69
2021/09/07 02:02:47;;;;;;;14.95;8.77;;;;;;;12.07;96.95;99436.50;5069068;28;20029;-69
2021/09/07 02:05:13;;;;;;;11.40;7.93;;;;;;;11.97;97.86;99436.00;5051833;28;20617;-69
2021/09/07 02:07:38;;;;;;;15.02;9.90;;;;;;;11.96;97.91;99442.47;5058469;28;20056;-69
2021/09/07 02:10:04;;;;;;;14.90;10.10;;;;;;;11.97;99.50;99441.41;5052765;28;20052;-69
2021/09/07 02:12:29;;;;;;;12.45;8.80;;;;;;;11.85;99.04;99432.97;5052613;28;20028;-69
2021/09/07 02:14:55;;;;;;;15.60;9.05;;;;;;;11.83;99.61;99443.16;5036287;28;20032;-69
2021/09/07 02:17:20;;;;;;;18.52;8.95;;;;;;;11.88;99.07;99435.31;5042782;28;20167;-69
2021/09/07 02:19:45;;;;;;;13.50;9.45;;;;;;;11.86;99.10;99440.09;5057954;28;20021;-69
2021/09/07 02:22:11;;;;;;;12.52;8.75;;;;;;;11.80;99.11;99441.69;5051902;28;20029;-69
2021/09/07 02:24:36;;;;;;;13.98;9.07;;;;;;;11.91;99.05;99448.47;5049519;28;20576;-68
2021/09/07 02:27:02;;;;;;;13.32;8.57;;;;;;;11.95;99.19;99443.53;5055292;28;20625;-69
2021/09/07 02:29:27;;;;;;;14.48;9.00;;;;;;;11.84;98.77;99424.00;5051839;28;20029;-69
2021/09/07 02:31:52;;;;;;;15.13;9.27;;;;;;;11.84;98.75;99431.28;5051171;28;20029;-68
2021/09/07 02:34:18;;;;;;;15.95;9.15;;;;;;;11.82;98.91;99434.19;5053218;28;20056;-69
2021/09/07 02:36:43;;;;;;;16.58;10.25;;;;;;;11.77;98.55;99447.50;5058071;28;20032;-68
2021/09/07 02:39:08;;;;;;;13.32;9.30;;;;;;;11.73;98.69;99446.19;5052487;28;20013;-68
2021/09/07 02:41:34;;;;;;;13.90;9.43;;;;;;;11.69;98.88;99444.94;5057764;28;20501;-68
2021/09/07 02:43:59;;;;;;;11.25;8.13;;;;;;;11.63;98.43;99442.97;5052493;28;20067;-69
2021/09/07 02:46:25;;;;;;;14.73;8.70;;;;;;;11.56;99.03;99417.72;5044940;28;20390;-69
2021/09/07 02:48:51;;;;;;;16.42;9.30;;;;;;;11.74;99.39;99438.94;5034467;28;20025;-68
2021/09/07 02:51:16;;;;;;;18.38;7.85;;;;;;;11.76;98.27;99442.25;5050250;28;20036;-68
2021/09/07 02:53:41;;;;;;;10.93;7.63;;;;;;;11.71;97.67;99425.75;5037907;28;20107;-69
2021/09/07 02:56:07;;;;;;;10.23;7.20;;;;;;;11.68;97.07;99431.56;5068118;28;20025;-69
2021/09/07 02:58:32;;;;;;;13.68;7.82;;;;;;;11.58;97.22;99430.03;5059281;28;20070;-68
2021/09/07 03:00:57;;;;;;;11.90;8.20;;;;;;;11.54;97.65;99426.03;5057008;28;20058;-69
2021/09/07 03:03:23;;;;;;;12.18;7.35;;;;;;;11.50;97.70;99426.59;5067138;28;20024;-68
2021/09/07 03:05:49;;;;;;;13.63;8.32;;;;;;;11.41;98.05;99415.06;5062463;28;20059;-69
2021/09/07 03:08:14;;;;;;;14.85;7.85;;;;;;;11.41;97.46;99415.91;5064968;28;20032;-69
2021/09/07 03:10:39;;;;;;;11.20;7.97;;;;;;;11.35;96.92;99400.44;5057826;28;20363;-68
2021/09/07 03:13:05;;;;;;;11.90;7.25;;;;;;;11.44;96.50;99425.50;5059244;28;20037;-68
2021/09/07 03:15:30;;;;;;;11.90;7.90;;;;;;;11.29;97.41;99412.03;5060103;28;20036;-68
2021/09/07 03:17:55;;;;;;;13.50;8.65;;;;;;;11.35;98.10;99413.97;5034243;28;20048;-68
2021/09/07 03:20:20;;;;;;;12.70;8.48;;;;;;;11.39;99.28;99417.94;5048904;28;20024;-68
2021/09/07 03:22:46;;;;;;;13.27;8.57;;;;;;;11.41;99.22;99420.47;5063798;28;20028;-68
2021/09/07 03:25:12;;;;;;;13.07;8.43;;;;;;;11.38;99.47;99410.88;5057644;28;20421;-68
2021/09/07 03:27:37;;;;;;;14.50;8.70;;;;;;;11.33;99.41;99391.66;5054756;28;20037;-69
2021/09/07 03:30:03;;;;;;;12.60;8.52;;;;;;;11.57;98.71;99405.81;5056001;28;20025;-69
2021/09/07 03:32:29;;;;;;;13.38;8.15;;;;;;;11.35;98.22;99376.03;5050887;28;20052;-68
2021/09/07 03:34:54;;;;;;;12.25;7.93;;;;;;;11.43;98.20;99407.59;5052060;28;20141;-68
2021/09/07 03:37:20;;;;;;;13.90;8.13;;;;;;;11.42;98.58;99400.47;5050484;28;20536;-68
2021/09/07 03:39:45;;;;;;;11.68;8.05;;;;;;;11.27;98.66;99381.59;5035711;28;20036;-68
2021/09/07 03:42:10;;;;;;;14.25;8.68;;;;;;;11.37;99.08;99398.38;5048087;28;20028;-68
2021/09/07 03:44:35;;;;;;;12.48;7.93;;;;;;;11.37;98.64;99400.22;5054441;28;20479;-68
2021/09/07 03:47:01;;;;;;;13.18;8.02;;;;;;;11.34;98.69;99370.81;5059224;28;20028;-68
2021/09/07 03:49:26;;;;;;;11.45;7.90;;;;;;;11.41;96.79;99394.22;5056186;28;20036;-68
2021/09/07 03:51:52;;;;;;;17.52;8.55;;;;;;;11.34;97.63;99387.91;5059096;28;20024;-68
2021/09/07 03:54:17;;;;;;;15.00;8.85;;;;;;;11.32;98.10;99381.03;5054648;28;20048;-68
2021/09/07 03:56:42;;;;;;;18.40;8.70;;;;;;;11.21;97.95;99376.09;5060446;28;20501;-68
2021/09/07 03:59:07;;;;;;;12.90;8.10;;;;;;;11.26;99.27;99387.19;5059960;28;20025;-69
2021/09/07 04:01:33;;;;;;;11.88;8.18;;;;;;;11.26;99.07;99400.72;5053508;28;20140;-68
2021/09/07 04:03:58;;;;;;;13.00;8.93;;;;;;;11.19;99.70;99381.72;5054730;28;20474;-68
2021/09/07 04:06:23;;;;;;;16.05;8.85;;;;;;;11.41;99.94;99405.06;5058909;28;20079;-68
2021/09/07 04:08:48;;;;;;;15.02;7.38;;;;;;;11.47;97.20;99403.44;5068729;28;20052;-69
2021/09/07 04:11:14;;;;;;;13.32;7.70;;;;;;;11.41;95.96;99398.81;5055364;28;20045;-69
2021/09/07 04:13:40;;;;;;;12.18;7.35;;;;;;;11.32;95.80;99398.09;5053437;28;20047;-69
2021/09/07 04:16:05;;;;;;;11.90;7.85;;;;;;;11.13;96.53;99377.94;5054734;28;20111;-68
2021/09/07 04:18:31;;;;;;;11.70;8.18;;;;;;;11.29;97.06;99400.34;5064797;28;20079;-68
2021/09/07 04:20:56;;;;;;;15.05;8.13;;;;;;;11.18;96.56;99382.75;5065135;28;20028;-68
2021/09/07 04:23:21;;;;;;;10.63;7.20;;;;;;;11.34;96.26;99411.44;5038074;28;20087;-68
2021/09/07 04:25:48;;;;;;;10.85;7.82;;;;;;;11.32;96.75;99411.66;5064178;28;20021;-69
2021/09/07 04:28:13;;;;;;;14.18;8.90;;;;;;;11.22;97.49;99418.41;5052956;28;20445;-69
2021/09/07 04:30:39;;;;;;;12.85;8.75;;;;;;;11.12;97.97;99422.28;5064819;28;20020;-68
2021/09/07 04:33:04;;;;;;;18.58;8.38;;;;;;;11.12;98.47;99414.16;5062899;28;20490;-68
2021/09/07 04:35:30;;;;;;;13.02;8.00;;;;;;;11.16;98.26;99406.47;5030632;28;20033;-69
2021/09/07 04:37:55;;;;;;;13.68;8.55;;;;;;;11.17;98.02;99402.75;5032901;28;20025;-70
2021/09/07 04:40:20;;;;;;;11.75;8.20;;;;;;;10.96;98.11;99385.44;5054554;28;20398;-73
2021/09/07 04:42:46;;;;;;;12.70;8.35;;;;;;;11.19;98.15;99412.34;5033501;28;20021;-74
2021/09/07 04:45:11;;;;;;;13.98;8.13;;;;;;;11.25;97.13;99383.66;5034536;28;20060;-72
2021/09/07 04:47:36;;;;;;;13.40;8.57;;;;;;;11.44;96.90;99408.41;5033005;28;20116;-73
2021/09/07 04:50:03;;;;;;;12.77;8.45;;;;;;;11.22;96.37;99383.22;5038656;28;20121;-72
2021/09/07 04:52:28;;;;;;;11.85;8.02;;;;;;;11.38;96.75;99407.31;5068960;28;20020;-72
2021/09/07 04:54:53;;;;;;;16.33;9.20;;;;;;;11.25;97.60;99399.91;5039395;28;20036;-72
2021/09/07 04:57:18;;;;;;;13.68;8.55;;;;;;;11.26;98.01;99407.00;5045441;28;20024;-72
2021/09/07 04:59:44;;;;;;;12.88;8.88;;;;;;;11.25;97.76;99410.75;5036027;28;20479;-75
2021/09/07 05:02:09;;;;;;;14.90;8.45;;;;;;;11.14;97.66;99376.88;5054597;28;20021;-71
2021/09/07 05:04:34;;;;;;;14.60;9.30;;;;;;;11.41;98.17;99420.47;5034297;28;20021;-73
2021/09/07 05:07:00;;;;;;;15.32;9.15;;;;;;;11.17;98.00;99381.91;5054034;28;20429;-72
2021/09/07 05:09:25;;;;;;;12.63;8.75;;;;;;;11.40;97.56;99422.34;5034342;28;20036;-71
2021/09/07 05:11:50;;;;;;;15.13;9.13;;;;;;;11.46;97.75;99428.03;5052935;28;20542;-73
2021/09/07 05:14:16;;;;;;;12.63;8.82;;;;;;;11.50;97.66;99422.03;5052113;28;20025;-71
2021/09/07 05:16:41;;;;;;;17.15;9.07;;;;;;;11.69;97.96;99433.25;5052189;28;20033;-72
2021/09/07 05:19:08;;;;;;;11.68;7.97;;;;;;;11.71;96.67;99428.47;5052992;28;20056;-70
2021/09/07 05:21:34;;;;;;;10.77;7.82;;;;;;;11.95;95.89;99427.25;5034868;28;20103;-70
2021/09/07 05:23:59;;;;;;;13.43;7.28;;;;;;;12.21;92.89;99437.44;5052860;28;20092;-70
2021/09/07 05:26:24;;;;;;;11.65;7.13;;;;;;;12.09;92.43;99420.03;5044770;28;20483;-72
2021/09/07 05:28:50;;;;;;;10.82;7.55;;;;;;;12.19;92.72;99439.53;5052937;28;20052;-71
2021/09/07 05:31:17;;;;;;;10.13;7.60;;;;;;;11.25;92.89;99283.44;5053200;28;20109;-73
2021/09/07 05:33:43;;;;;;;10.35;7.57;;;;;;;12.28;92.20;99435.59;5052868;28;20497;-72
2021/09/07 05:36:08;;;;;;;12.55;7.55;;;;;;;12.35;91.57;99420.22;5035652;28;20029;-72
2021/09/07 05:38:33;;;;;;;10.55;7.32;;;;;;;12.51;91.37;99446.19;5034469;28;20067;-67
2021/09/07 05:40:59;;;;;;;13.55;8.13;;;;;;;12.57;90.88;99449.97;5052777;28;20025;-69
2021/09/07 05:43:24;;;;;;;20.48;7.88;;;;;;;12.71;90.92;99451.72;5050514;28;20547;-69
2021/09/07 05:45:49;;;;;;;10.43;7.85;;;;;;;12.34;90.29;99379.69;5052472;28;20028;-69
2021/09/07 05:48:14;;;;;;;12.07;8.23;;;;;;;12.73;88.91;99441.47;5051396;28;20059;-69
2021/09/07 05:50:40;;;;;;;16.58;8.18;;;;;;;12.73;89.10;99436.06;5052153;28;20033;-69
2021/09/07 05:53:08;;;;;;;10.23;7.25;;;;;;;12.68;89.60;99424.97;5048132;28;20572;-66
2021/09/07 05:55:33;;;;;;;14.60;7.95;;;;;;;12.84;89.71;99440.94;5040657;28;20025;-68
2021/09/07 05:57:58;;;;;;;16.38;8.95;;;;;;;12.96;88.87;99441.16;5050911;28;20044;-68
2021/09/07 06:00:24;;;;;;;12.05;7.65;;;;;;;13.04;88.38;99446.41;5042425;28;20037;-66
2021/09/07 06:02:52;;;;;;;13.55;8.27;;;;;;;13.13;88.13;99447.09;5043287;28;20386;-69
2021/09/07 06:05:17;;;;;;;12.65;7.70;;;;;;;13.18;87.74;99438.31;5045354;28;20032;-69
2021/09/07 06:07:42;;;;;;;13.30;8.57;;;;;;;13.48;86.49;99452.44;5041564;28;20536;-70
2021/09/07 06:10:09;;;;;;;14.27;9.32;;;;;;;13.38;85.84;99433.78;5049614;28;20021;-70
2021/09/07 06:12:35;;;;;;;17.73;10.10;;;;;;;13.44;85.11;99433.00;5026822;28;20029;-73
2021/09/07 06:15:00;;;;;;;14.75;8.90;;;;;;;13.84;84.54;99453.94;5034147;28;20029;-66
2021/09/07 06:17:26;;;;;;;10.00;7.22;;;;;;;13.98;83.99;99458.34;5034670;28;20116;-67
2021/09/07 06:19:51;;;;;;;10.85;6.95;;;;;;;14.13;82.65;99458.97;5050816;28;20467;-67
2021/09/07 06:22:16;;;;;;;11.73;7.80;;;;;;;14.23;82.07;99462.09;5049630;28;20154;-70
2021/09/07 06:24:42;;;;;;;12.75;6.85;;;;;;;14.28;81.37;99460.59;5047235;28;20032;-69
2021/09/07 06:27:07;;;;;;;15.80;8.88;;;;;;;13.92;80.79;99424.66;5051436;28;20084;-70
2021/09/07 06:29:33;;;;;;;12.45;8.48;;;;;;;13.86;81.82;99446.41;5051060;28;20040;-70
2021/09/07 06:31:58;;;;;;;11.43;8.30;;;;;;;14.07;81.36;99435.31;5031838;28;20032;-70
2021/09/07 06:34:27;;;;;;;14.68;8.18;;;;;;;14.49;79.10;99441.31;5050366;28;20214;-70
2021/09/07 06:36:53;;;;;;;11.30;7.88;;;;;;;14.99;77.66;99460.69;5051455;28;20029;-69
2021/09/07 06:39:19;;;;;;;13.85;7.93;;;;;;;15.23;76.83;99461.81;5051156;28;20394;-70
2021/09/07 06:41:44;;;;;;;13.27;8.02;;;;;;;15.68;75.23;99460.94;5050967;28;20037;-69
2021/09/07 06:44:10;;;;;;;12.23;7.75;;;;;;;16.73;70.98;99462.97;5051204;28;20025;-70
2021/09/07 06:46:35;;;;;;;15.60;7.38;;;;;;;17.37;68.84;99453.38;5051483;28;20104;-72
2021/09/07 06:49:00;;;;;;;11.95;7.90;;;;;;;18.54;63.88;99457.38;5051468;28;20029;-68
2021/09/07 06:51:25;;;;;;;12.90;7.20;;;;;;;19.60;59.58;99444.22;5051972;28;20017;-72
2021/09/07 06:53:51;;;;;;;11.65;6.80;;;;;;;21.07;54.70;99413.78;5027800;28;20025;-71
2021/09/07 06:56:16;;;;;;;14.25;7.40;;;;;;;21.99;52.03;99436.75;5048149;28;20510;-71
2021/09/07 06:58:41;;;;;;;9.05;6.88;;;;;;;22.45;51.52;99450.06;5049425;28;20147;-66
2021/09/07 07:01:06;;;;;;;11.73;7.20;;;;;;;23.28;48.59;99452.19;5050637;28;20127;-70
2021/09/07 07:03:33;;;;;;;12.38;6.90;;;;;;;23.04;50.16;99451.81;5049408;28;20028;-70
2021/09/07 07:05:58;;;;;;;15.95;7.43;;;;;;;22.97;56.82;99458.38;5050845;28;20043;-60
2021/09/07 07:08:23;;;;;;;11.10;6.72;;;;;;;22.26;52.11;99441.41;5051283;28;20032;-73
2021/09/07 07:10:49;;;;;;;13.57;7.07;;;;;;;21.00;54.81;99432.38;5051278;28;20475;-72
2021/09/07 07:13:14;;;;;;;15.10;7.03;;;;;;;21.69;53.56;99458.50;5054831;28;20350;-68
2021/09/07 07:15:39;;;;;;;12.55;7.15;;;;;;;24.12;50.25;99445.41;5055247;28;20024;-67
2021/09/07 07:18:05;;;;;;;11.63;6.88;;;;;;;24.27;48.11;99462.00;5054363;28;20675;-67
2021/09/07 07:20:31;;;;;;;11.38;6.50;;;;;;;24.23;50.34;99466.44;5055702;28;20031;-67
2021/09/07 07:22:56;;;;;;;15.93;6.78;;;;;;;25.04;45.42;99456.31;5054746;28;20025;-67
2021/09/07 07:25:21;;;;;;;14.95;8.20;;;;;;;25.70;44.01;99444.13;5053980;28;20091;-67
2021/09/07 07:27:47;;;;;;;12.68;7.47;;;;;;;26.32;42.84;99469.41;5035338;28;20029;-66
2021/09/07 07:30:13;;;;;;;11.90;7.18;;;;;;;27.77;42.03;99464.69;5049536;28;20108;-65
2021/09/07 07:32:38;;;;;;;12.77;6.88;;;;;;;28.40;38.66;99467.03;5052179;28;20501;-69
2021/09/07 07:35:04;;;;;;;14.13;6.93;;;;;;;29.14;36.66;99459.84;5051900;28;20040;-68
2021/09/07 07:37:29;;;;;;;12.00;7.35;;;;;;;28.98;37.67;99460.13;5052376;28;20029;-65
2021/09/07 07:39:55;;;;;;;13.00;7.18;;;;;;;29.05;37.35;99451.38;5044176;28;20035;-68
2021/09/07 07:42:20;;;;;;;15.63;6.63;;;;;;;29.83;35.48;99446.59;5031938;28;20116;-71
2021/09/07 07:44:47;;;;;;;13.70;7.47;;;;;;;30.76;34.49;99459.88;5057343;28;20021;-65
2021/09/07 07:47:13;;;;;;;12.95;7.00;;;;;;;30.97;34.85;99456.56;5057038;28;20044;-65
2021/09/07 07:49:38;;;;;;;10.25;6.15;;;;;;;30.27;34.79;99444.16;5060232;28;20029;-65
2021/09/07 07:52:04;;;;;;;10.20;6.13;;;;;;;29.89;36.68;99452.88;5040462;28;20025;-65
2021/09/07 07:54:29;;;;;;;15.60;6.57;;;;;;;29.49;36.37;99470.22;5135011;22;20068;-71
2021/09/07 07:56:54;;;;;;;10.77;6.90;;;;;;;27.23;40.96;99463.25;5045937;28;20056;-71
2021/09/07 07:59:20;;;;;;;9.43;6.93;;;;;;;26.37;42.80;99474.94;5035531;28;20031;-71
2021/09/07 08:01:45;;;;;;;13.43;7.78;;;;;;;26.04;42.93;99471.03;5034035;28;20022;-71
2021/09/07 08:04:10;;;;;;;11.43;7.40;;;;;;;28.34;39.08;99473.00;5048361;28;20483;-71
2021/09/07 08:06:37;;;;;;;12.27;7.22;;;;;;;29.99;36.99;99462.97;5035463;28;20034;-71
2021/09/07 08:09:02;;;;;;;12.15;7.53;;;;;;;30.39;34.87;99460.31;5030534;28;20026;-71
2021/09/07 08:11:28;;;;;;;11.10;7.15;;;;;;;29.85;35.15;99472.22;5030259;28;20029;-71
2021/09/07 08:13:53;;;;;;;12.60;7.00;;;;;;;30.07;34.71;99462.22;5033468;28;20386;-71
2021/09/07 08:16:20;;;;;;;10.55;6.82;;;;;;;29.67;35.83;99470.44;5034681;28;20034;-71
2021/09/07 08:18:46;;;;;;;16.40;7.70;;;;;;;29.07;35.92;99470.59;5031960;28;20025;-71
2021/09/07 08:21:11;;;;;;;10.98;7.05;;;;;;;29.93;34.92;99470.66;5035797;28;20036;-71
2021/09/07 08:23:36;;;;;;;10.68;6.82;;;;;;;30.72;34.17;99475.63;5045693;28;20110;-71
2021/09/07 08:26:01;;;;;;;10.55;7.88;;;;;;;30.42;34.20;99468.06;5035065;28;20025;-71
2021/09/07 08:28:27;;;;;;;8.60;6.43;;;;;;;30.83;33.78;99473.41;5033503;28;20030;-72
2021/09/07 08:30:52;;;;;;;11.88;7.15;;;;;;;31.29;32.33;99468.50;5033620;28;20109;-72
2021/09/07 08:33:18;;;;;;;9.75;7.07;;;;;;;30.72;34.33;99461.66;5035976;28;20479;-71
2021/09/07 08:35:44;;;;;;;11.10;6.72;;;;;;;30.43;33.73;99458.56;5034942;28;20037;-71
2021/09/07 08:38:10;;;;;;;9.02;6.93;;;;;;;31.91;31.70;99457.03;5034744;28;20047;-71
2021/09/07 08:40:37;;;;;;;13.80;7.07;;;;;;;32.16;31.19;99457.41;5033015;28;20041;-71
2021/09/07 08:43:04;;;;;;;9.02;6.68;;;;;;;33.12;29.64;99457.97;5034544;28;20112;-71
2021/09/07 08:45:29;;;;;;;13.00;7.50;;;;;;;33.10;29.76;99469.53;5034159;28;20040;-71
2021/09/07 08:48:00;;;;;;;9.38;6.60;;;;;;;33.13;30.03;99456.81;5034599;28;20029;-73
2021/09/07 08:50:27;;;;;;;12.30;6.80;;;;;;;30.45;33.38;99462.69;5034290;28;20324;-71
2021/09/07 08:52:58;;;;;;;12.30;6.32;;;;;;;31.21;32.58;99465.34;5033375;28;20021;-72
2021/09/07 08:55:24;;;;;;;8.48;6.68;;;;;;;31.92;31.29;99469.91;5032199;28;20099;-72
2021/09/07 08:57:49;;;;;;;10.25;6.00;;;;;;;32.04;31.97;99464.50;5033072;28;20029;-72
2021/09/07 09:00:26;;;;;;;7.10;5.45;;;;;;;33.80;28.54;99446.66;5015351;28;20031;-71
2021/09/07 09:02:52;;;;;;;8.50;6.50;;;;;;;33.60;30.07;99473.56;5017380;28;20029;-72
2021/09/07 09:05:35;;;;;;;9.52;6.53;;;;;;;33.41;29.30;99479.59;5030661;28;20031;-71
2021/09/07 09:08:01;;;;;;;11.02;6.07;;;;;;;34.08;27.65;99474.19;5034254;28;20108;-72
2021/09/07 09:10:27;;;;;;;9.27;5.93;;;;;;;33.90;28.17;99473.47;5034507;28;20683;-72
2021/09/07 09:13:13;;;;;;;10.80;5.63;;;;;;;35.31;27.28;99475.28;5045252;28;20494;-71
2021/09/07 09:15:40;;;;;;;8.60;6.43;;;;;;;34.30;27.64;99470.16;5037357;28;20472;-71
2021/09/07 09:18:09;;;;;;;8.98;5.90;;;;;;;34.23;28.29;99477.16;5034689;28;20541;-72
2021/09/07 09:20:37;;;;;;;11.00;6.55;;;;;;;34.36;28.70;99469.63;5016390;28;20048;-72
2021/09/07 09:23:04;;;;;;;9.85;5.57;;;;;;;35.45;27.22;99472.94;5035159;28;20037;-73
2021/09/07 09:25:30;;;;;;;8.20;5.63;;;;;;;34.16;28.53;99459.22;5033690;28;20032;-72
2021/09/07 09:27:55;;;;;;;10.05;6.07;;;;;;;33.56;29.45;99466.97;5035229;28;20049;-72
2021/09/07 09:30:30;;;;;;;10.95;5.72;;;;;;;34.58;28.16;99467.59;5014112;28;20022;-72
2021/09/07 09:32:58;;;;;;;8.52;5.50;;;;;;;33.72;28.45;99450.34;5031233;28;20033;-72
2021/09/07 09:35:24;;;;;;;7.38;5.75;;;;;;;34.76;27.44;99471.03;5033456;28;20039;-73
2021/09/07 09:37:56;;;;;;;13.63;5.32;;;;;;;35.43;27.34;99475.28;5033638;28;20395;-72
2021/09/07 09:40:23;;;;;;;9.02;5.70;;;;;;;34.81;27.59;99471.59;5033470;28;20042;-71
2021/09/07 09:42:49;;;;;;;9.70;5.30;;;;;;;35.64;26.43;99463.09;5049400;28;20494;-72
2021/09/07 09:45:15;;;;;;;8.63;5.55;;;;;;;36.49;26.27;99456.31;5043508;28;20041;-71
2021/09/07 09:47:51;;;;;;;8.82;5.68;;;;;;;36.74;25.35;99461.84;5032669;28;20036;-71
2021/09/07 09:50:18;;;;;;;6.82;5.20;;;;;;;37.26;24.94;99464.38;5033572;28;20025;-70
2021/09/07 09:52:45;;;;;;;8.05;5.55;;;;;;;35.76;26.52;99468.69;5035917;28;20025;-70
2021/09/07 09:55:13;;;;;;;8.73;6.00;;;;;;;34.12;28.51;99466.72;5044074;28;20120;-72
2021/09/07 09:57:39;;;;;;;10.77;5.53;;;;;;;35.33;27.31;99458.88;5036726;28;20027;-71
2021/09/07 10:00:08;;;;;;;9.00;5.60;;;;;;;36.27;26.84;99463.38;5015610;28;20099;-72
2021/09/07 10:02:33;;;;;;;8.23;5.65;;;;;;;36.47;25.54;99455.03;5022768;28;20040;-71
2021/09/07 10:04:59;;;;;;;7.63;5.00;;;;;;;36.76;24.94;99446.19;5013416;28;20025;-71
2021/09/07 10:07:28;;;;;;;8.68;5.22;;;;;;;36.98;24.95;99449.53;5047045;28;20379;-72
2021/09/07 10:09:56;;;;;;;7.35;5.25;;;;;;;37.01;25.29;99446.00;5042759;28;20032;-71
2021/09/07 10:12:37;;;;;;;7.18;5.20;;;;;;;35.64;26.36;99443.41;5032987;28;20048;-71
2021/09/07 10:15:16;;;;;;;5.70;4.63;;;;;;;35.94;26.10;99443.88;5038930;28;20029;-70
2021/09/07 10:25:53;;;;;;;8.52;5.18;;;;;;;37.82;23.41;99434.19;5032165;28;20069;-73
2021/09/07 10:28:45;;;;;;;10.93;4.97;;;;;;;36.13;24.39;99437.59;5032753;28;20044;-72
2021/09/07 10:31:15;;;;;;;8.00;4.90;;;;;;;37.10;24.09;99432.56;5031823;28;20045;-70
2021/09/07 10:34:00;;;;;;;7.10;4.95;;;;;;;37.35;23.09;99435.13;5032443;28;20554;-70
2021/09/07 10:36:28;;;;;;;7.55;4.20;;;;;;;39.09;21.27;99427.72;5031840;28;20026;-72
2021/09/07 10:38:59;;;;;;;5.90;4.80;;;;;;;37.59;22.72;99429.25;5013098;28;20037;-71
2021/09/07 10:41:33;;;;;;;6.45;4.40;;;;;;;38.45;21.48;99416.91;5032406;28;20029;-72
2021/09/07 10:44:10;;;;;;;7.82;5.00;;;;;;;36.33;24.19;99424.47;5032345;28;20032;-72
2021/09/07 10:46:43;;;;;;;6.90;5.22;;;;;;;35.06;24.88;99426.66;5012472;28;20029;-71
2021/09/07 10:49:24;;;;;;;7.63;4.75;;;;;;;35.04;24.97;99424.19;5042677;28;20032;-73
2021/09/07 10:52:11;;;;;;;7.10;4.63;;;;;;;36.81;22.46;99412.09;5052418;28;20091;-72
2021/09/07 10:54:46;;;;;;;5.20;4.43;;;;;;;36.32;23.28;99412.38;5044017;28;20028;-70
2021/09/07 10:57:43;;;;;;;5.97;4.95;;;;;;;36.95;24.33;99407.97;5052454;28;20101;-72
2021/09/07 11:00:16;;;;;;;6.63;4.33;;;;;;;38.49;20.25;99391.53;5047914;28;20029;-71
2021/09/07 11:02:49;;;;;;;8.98;4.43;;;;;;;36.74;22.64;99394.16;5032135;28;20754;-73
2021/09/07 11:05:23;;;;;;;6.13;4.75;;;;;;;37.37;22.30;99398.91;5032109;28;20025;-70
2021/09/07 11:07:48;;;;;;;7.18;4.95;;;;;;;37.06;21.67;99394.97;5032376;28;20029;-72
2021/09/07 11:10:13;;;;;;;6.75;4.80;;;;;;;36.60;22.61;99397.41;5016632;28;20035;-73
2021/09/07 11:12:39;;;;;;;5.53;4.90;;;;;;;35.89;22.58;99399.88;5051961;28;20087;-74
2021/09/07 11:15:10;;;;;;;7.88;4.93;;;;;;;35.82;23.82;99394.06;5052152;28;20108;-74
2021/09/07 11:17:57;;;;;;;6.78;4.93;;;;;;;36.13;23.31;99392.50;5037131;28;20025;-74
2021/09/07 11:20:30;;;;;;;7.10;4.57;;;;;;;34.92;23.98;99384.81;5030222;28;20445;-72
2021/09/07 11:22:55;;;;;;;8.90;5.47;;;;;;;35.34;23.77;99384.53;5028033;28;20379;-74
2021/09/07 11:25:22;;;;;;;6.80;4.60;;;;;;;36.15;23.70;99378.91;5031883;28;20025;-72
2021/09/07 11:27:58;;;;;;;9.02;4.68;;;;;;;37.48;22.02;99375.34;5032093;28;20048;-73
2021/09/07 11:30:33;;;;;;;7.85;4.40;;;;;;;37.55;21.37;99374.72;5032818;28;20083;-73
2021/09/07 11:33:06;;;;;;;6.03;4.88;;;;;;;38.37;21.33;99372.72;5029227;28;20029;-74